JFK weather

John F Kennedy International Airport
New York, New York, United States

Public forecast

Using degrees Fahrenheit for public forecast. Weather courtesy of forecast.io.

METAR (pilot weather report)

Retrieved 2019/04/21 11:51 UTC (15 minutes ago):

KJFK 211151Z 13009KT 10SM FEW060 SCT075 SCT100 BKN200 BKN250 12/12 A2995 RMK AO2 SLP143 60000 70017 T01220117 10128 20106 51012

TAF (pilot weather forecast)

Retrieved 2019/04/21 12:30 UTC (0 seconds ago):

TAF KJFK 211127Z 2112/2218 15010KT P6SM SCT050 BKN070 BKN250 FM211400 18009KT P6SM BKN080 FM211700 16011KT P6SM SCT080 BKN250 FM220200 VRB05KT P6SM BKN080 FM221200 03006KT P6SM SCT030 BKN050